sensor_id;sensor_type;location;lat;lon;timestamp;pressure;altitude;pressure_sealevel;temperature;humidity
62705;BME280;48767;50.754;8.772;2022-10-03T00:00:23;100118.69;;;5.72;100.00
62705;BME280;48767;50.754;8.772;2022-10-03T00:06:05;100125.00;;;5.71;100.00
62705;BME280;48767;50.754;8.772;2022-10-03T00:08:53;100121.56;;;5.69;100.00
62705;BME280;48767;50.754;8.772;2022-10-03T00:11:30;100128.41;;;5.61;100.00
62705;BME280;48767;50.754;8.772;2022-10-03T00:14:01;100124.34;;;5.80;100.00
62705;BME280;48767;50.754;8.772;2022-10-03T00:16:39;100125.84;;;5.47;100.00
62705;BME280;48767;50.754;8.772;2022-10-03T00:19:18;100121.03;;;5.64;100.00
62705;BME280;48767;50.754;8.772;2022-10-03T00:21:55;100125.53;;;5.51;100.00
62705;BME280;48767;50.754;8.772;2022-10-03T00:24:38;100124.75;;;5.62;100.00
62705;BME280;48767;50.754;8.772;2022-10-03T00:27:10;100128.06;;;5.53;100.00
62705;BME280;48767;50.754;8.772;2022-10-03T00:29:52;100133.41;;;5.78;100.00
62705;BME280;48767;50.754;8.772;2022-10-03T00:32:43;100133.94;;;5.70;100.00
62705;BME280;48767;50.754;8.772;2022-10-03T00:35:25;100132.06;;;5.72;100.00
62705;BME280;48767;50.754;8.772;2022-10-03T00:38:04;100137.41;;;5.60;100.00
62705;BME280;48767;50.754;8.772;2022-10-03T00:41:00;100141.22;;;5.68;100.00
62705;BME280;48767;50.754;8.772;2022-10-03T00:46:51;100136.88;;;5.03;100.00
62705;BME280;48767;50.754;8.772;2022-10-03T00:49:57;100141.03;;;4.95;100.00
62705;BME280;48767;50.754;8.772;2022-10-03T00:53:02;100141.34;;;4.90;100.00
62705;BME280;48767;50.754;8.772;2022-10-03T00:55:41;100148.03;;;4.83;100.00
62705;BME280;48767;50.754;8.772;2022-10-03T01:01:20;100141.91;;;4.95;100.00
62705;BME280;48767;50.754;8.772;2022-10-03T01:03:57;100145.34;;;4.83;100.00
62705;BME280;48767;50.754;8.772;2022-10-03T01:06:37;100139.59;;;4.77;100.00
62705;BME280;48767;50.754;8.772;2022-10-03T01:12:05;100146.44;;;4.54;100.00
62705;BME280;48767;50.754;8.772;2022-10-03T01:15:01;100151.22;;;4.49;100.00
62705;BME280;48767;50.754;8.772;2022-10-03T01:17:37;100158.50;;;4.60;100.00
62705;BME280;48767;50.754;8.772;2022-10-03T01:20:27;100160.91;;;4.64;100.00
62705;BME280;48767;50.754;8.772;2022-10-03T01:26:13;100170.50;;;4.26;100.00
62705;BME280;48767;50.754;8.772;2022-10-03T01:28:50;100174.97;;;4.26;100.00
62705;BME280;48767;50.754;8.772;2022-10-03T01:31:42;100168.63;;;4.14;100.00
62705;BME280;48767;50.754;8.772;2022-10-03T01:34:17;100172.97;;;4.15;100.00
62705;BME280;48767;50.754;8.772;2022-10-03T01:36:56;100168.59;;;4.28;100.00
62705;BME280;48767;50.754;8.772;2022-10-03T01:39:31;100165.91;;;4.42;100.00
62705;BME280;48767;50.754;8.772;2022-10-03T01:42:05;100176.38;;;4.45;100.00
62705;BME280;48767;50.754;8.772;2022-10-03T01:44:43;100176.78;;;4.25;100.00
62705;BME280;48767;50.754;8.772;2022-10-03T01:47:19;100175.00;;;4.52;100.00
62705;BME280;48767;50.754;8.772;2022-10-03T01:49:54;100178.59;;;4.65;100.00
62705;BME280;48767;50.754;8.772;2022-10-03T01:52:31;100178.13;;;4.59;100.00
62705;BME280;48767;50.754;8.772;2022-10-03T01:55:05;100194.13;;;4.04;100.00
62705;BME280;48767;50.754;8.772;2022-10-03T01:57:37;100197.56;;;3.92;100.00
62705;BME280;48767;50.754;8.772;2022-10-03T02:00:12;100206.38;;;3.65;100.00
62705;BME280;48767;50.754;8.772;2022-10-03T02:02:44;100211.28;;;3.86;100.00
62705;BME280;48767;50.754;8.772;2022-10-03T02:05:17;100193.94;;;4.07;100.00
62705;BME280;48767;50.754;8.772;2022-10-03T02:07:51;100198.31;;;4.22;100.00
62705;BME280;48767;50.754;8.772;2022-10-03T02:10:31;100192.91;;;4.10;100.00
62705;BME280;48767;50.754;8.772;2022-10-03T02:13:06;100201.44;;;4.29;100.00
62705;BME280;48767;50.754;8.772;2022-10-03T02:15:47;100200.41;;;4.03;100.00
62705;BME280;48767;50.754;8.772;2022-10-03T02:18:24;100200.97;;;3.94;100.00
62705;BME280;48767;50.754;8.772;2022-10-03T02:20:59;100211.66;;;3.80;100.00
62705;BME280;48767;50.754;8.772;2022-10-03T02:23:37;100215.78;;;3.56;100.00
62705;BME280;48767;50.754;8.772;2022-10-03T02:26:25;100220.19;;;3.71;100.00
62705;BME280;48767;50.754;8.772;2022-10-03T02:29:07;100220.59;;;3.93;100.00
62705;BME280;48767;50.754;8.772;2022-10-03T02:32:02;100221.56;;;4.06;100.00
62705;BME280;48767;50.754;8.772;2022-10-03T02:40:55;100225.31;;;3.60;100.00
62705;BME280;48767;50.754;8.772;2022-10-03T02:44:19;100227.63;;;3.66;100.00
62705;BME280;48767;50.754;8.772;2022-10-03T02:50:26;100223.28;;;4.07;100.00
62705;BME280;48767;50.754;8.772;2022-10-03T02:56:02;100229.72;;;3.75;100.00
62705;BME280;48767;50.754;8.772;2022-10-03T02:58:58;100235.31;;;3.57;100.00
62705;BME280;48767;50.754;8.772;2022-10-03T03:04:53;100234.06;;;3.62;100.00
62705;BME280;48767;50.754;8.772;2022-10-03T03:07:38;100238.84;;;3.71;100.00
62705;BME280;48767;50.754;8.772;2022-10-03T03:10:30;100243.72;;;3.79;100.00
62705;BME280;48767;50.754;8.772;2022-10-03T03:13:32;100246.47;;;4.05;100.00
62705;BME280;48767;50.754;8.772;2022-10-03T03:16:35;100239.94;;;4.25;100.00
62705;BME280;48767;50.754;8.772;2022-10-03T03:19:34;100248.31;;;4.05;100.00
62705;BME280;48767;50.754;8.772;2022-10-03T03:22:18;100247.28;;;4.21;100.00
62705;BME280;48767;50.754;8.772;2022-10-03T03:25:01;100249.53;;;3.99;100.00
62705;BME280;48767;50.754;8.772;2022-10-03T03:27:39;100250.53;;;3.69;100.00
62705;BME280;48767;50.754;8.772;2022-10-03T03:30:10;100256.75;;;3.83;100.00
62705;BME280;48767;50.754;8.772;2022-10-03T03:32:48;100251.13;;;3.74;100.00
62705;BME280;48767;50.754;8.772;2022-10-03T03:35:28;100251.53;;;3.96;100.00
62705;BME280;48767;50.754;8.772;2022-10-03T03:38:07;100245.50;;;3.78;100.00
62705;BME280;48767;50.754;8.772;2022-10-03T03:40:45;100243.44;;;3.97;100.00
62705;BME280;48767;50.754;8.772;2022-10-03T03:43:36;100254.09;;;3.83;100.00
62705;BME280;48767;50.754;8.772;2022-10-03T03:46:15;100252.13;;;4.15;100.00
62705;BME280;48767;50.754;8.772;2022-10-03T03:48:59;100255.91;;;4.11;100.00
62705;BME280;48767;50.754;8.772;2022-10-03T03:51:35;100260.38;;;4.10;100.00
62705;BME280;48767;50.754;8.772;2022-10-03T03:54:23;100260.41;;;3.96;100.00
62705;BME280;48767;50.754;8.772;2022-10-03T03:57:38;100257.50;;;3.71;100.00
62705;BME280;48767;50.754;8.772;2022-10-03T04:00:13;100261.03;;;3.42;100.00
62705;BME280;48767;50.754;8.772;2022-10-03T04:02:51;100268.25;;;3.40;100.00
62705;BME280;48767;50.754;8.772;2022-10-03T04:05:29;100271.66;;;3.58;100.00
62705;BME280;48767;50.754;8.772;2022-10-03T04:08:15;100263.31;;;3.34;100.00
62705;BME280;48767;50.754;8.772;2022-10-03T04:11:03;100269.59;;;3.47;100.00
62705;BME280;48767;50.754;8.772;2022-10-03T04:13:47;100274.94;;;3.47;100.00
62705;BME280;48767;50.754;8.772;2022-10-03T04:16:29;100264.28;;;3.47;100.00
62705;BME280;48767;50.754;8.772;2022-10-03T04:19:24;100261.06;;;3.56;100.00
62705;BME280;48767;50.754;8.772;2022-10-03T04:22:13;100268.56;;;3.50;100.00
62705;BME280;48767;50.754;8.772;2022-10-03T04:24:57;100268.69;;;3.62;100.00
62705;BME280;48767;50.754;8.772;2022-10-03T04:27:41;100268.13;;;3.57;100.00
62705;BME280;48767;50.754;8.772;2022-10-03T04:30:18;100273.41;;;3.87;100.00
62705;BME280;48767;50.754;8.772;2022-10-03T04:33:13;100271.34;;;3.62;100.00
62705;BME280;48767;50.754;8.772;2022-10-03T04:36:19;100280.34;;;3.75;100.00
62705;BME280;48767;50.754;8.772;2022-10-03T04:39:00;100270.41;;;3.63;100.00
62705;BME280;48767;50.754;8.772;2022-10-03T04:41:37;100271.88;;;3.39;100.00
62705;BME280;48767;50.754;8.772;2022-10-03T04:44:14;100279.56;;;3.14;100.00
62705;BME280;48767;50.754;8.772;2022-10-03T04:46:50;100274.47;;;3.25;100.00
62705;BME280;48767;50.754;8.772;2022-10-03T04:49:25;100274.63;;;3.22;100.00
62705;BME280;48767;50.754;8.772;2022-10-03T04:51:58;100282.75;;;3.21;100.00
62705;BME280;48767;50.754;8.772;2022-10-03T04:54:31;100278.59;;;3.31;100.00
62705;BME280;48767;50.754;8.772;2022-10-03T04:57:18;100278.44;;;3.18;100.00
62705;BME280;48767;50.754;8.772;2022-10-03T04:59:50;100271.03;;;3.82;100.00
62705;BME280;48767;50.754;8.772;2022-10-03T05:02:29;100271.31;;;3.48;100.00
62705;BME280;48767;50.754;8.772;2022-10-03T05:05:17;100275.66;;;3.35;100.00
62705;BME280;48767;50.754;8.772;2022-10-03T05:07:51;100267.81;;;3.03;100.00
62705;BME280;48767;50.754;8.772;2022-10-03T05:10:39;100268.69;;;3.03;100.00
62705;BME280;48767;50.754;8.772;2022-10-03T05:13:13;100271.75;;;3.11;100.00
62705;BME280;48767;50.754;8.772;2022-10-03T05:15:50;100277.81;;;3.29;100.00
62705;BME280;48767;50.754;8.772;2022-10-03T05:18:30;100275.56;;;2.92;100.00
62705;BME280;48767;50.754;8.772;2022-10-03T05:21:04;100280.72;;;2.95;100.00
62705;BME280;48767;50.754;8.772;2022-10-03T05:23:49;100278.25;;;3.21;100.00
62705;BME280;48767;50.754;8.772;2022-10-03T05:26:23;100286.00;;;3.55;100.00
62705;BME280;48767;50.754;8.772;2022-10-03T05:28:56;100296.81;;;3.52;100.00
62705;BME280;48767;50.754;8.772;2022-10-03T05:31:39;100290.59;;;3.22;100.00
62705;BME280;48767;50.754;8.772;2022-10-03T05:34:20;100306.03;;;3.47;100.00
62705;BME280;48767;50.754;8.772;2022-10-03T05:37:00;100306.63;;;3.07;100.00
62705;BME280;48767;50.754;8.772;2022-10-03T05:39:38;100302.66;;;3.14;100.00
62705;BME280;48767;50.754;8.772;2022-10-03T05:42:30;100314.31;;;3.11;100.00
62705;BME280;48767;50.754;8.772;2022-10-03T05:45:02;100320.00;;;3.05;100.00
62705;BME280;48767;50.754;8.772;2022-10-03T05:47:32;100317.25;;;2.91;100.00
62705;BME280;48767;50.754;8.772;2022-10-03T05:50:48;100314.91;;;3.32;100.00
62705;BME280;48767;50.754;8.772;2022-10-03T05:53:50;100314.31;;;3.11;100.00
62705;BME280;48767;50.754;8.772;2022-10-03T05:56:36;100327.19;;;3.34;100.00
62705;BME280;48767;50.754;8.772;2022-10-03T05:59:27;100317.63;;;3.46;100.00
62705;BME280;48767;50.754;8.772;2022-10-03T06:05:15;100314.25;;;3.58;100.00
62705;BME280;48767;50.754;8.772;2022-10-03T06:08:07;100308.66;;;3.62;100.00
62705;BME280;48767;50.754;8.772;2022-10-03T06:10:46;100321.66;;;3.82;100.00
62705;BME280;48767;50.754;8.772;2022-10-03T06:13:24;100317.88;;;4.00;100.00
62705;BME280;48767;50.754;8.772;2022-10-03T06:16:00;100306.38;;;4.00;100.00
62705;BME280;48767;50.754;8.772;2022-10-03T06:18:56;100326.09;;;4.25;100.00
62705;BME280;48767;50.754;8.772;2022-10-03T06:22:21;100318.31;;;4.50;100.00
62705;BME280;48767;50.754;8.772;2022-10-03T06:34:09;100312.91;;;5.06;100.00
62705;BME280;48767;50.754;8.772;2022-10-03T06:36:51;100319.53;;;5.13;100.00
62705;BME280;48767;50.754;8.772;2022-10-03T06:42:47;100316.56;;;5.44;100.00
62705;BME280;48767;50.754;8.772;2022-10-03T06:49:10;100312.78;;;5.87;100.00
62705;BME280;48767;50.754;8.772;2022-10-03T06:52:03;100320.97;;;6.11;100.00
62705;BME280;48767;50.754;8.772;2022-10-03T06:54:53;100318.50;;;6.20;100.00
62705;BME280;48767;50.754;8.772;2022-10-03T07:00:44;100327.34;;;6.58;100.00
62705;BME280;48767;50.754;8.772;2022-10-03T07:03:35;100331.63;;;6.61;100.00
62705;BME280;48767;50.754;8.772;2022-10-03T07:06:33;100346.63;;;6.51;100.00
62705;BME280;48767;50.754;8.772;2022-10-03T07:12:25;100340.84;;;7.18;100.00
62705;BME280;48767;50.754;8.772;2022-10-03T07:21:21;100350.50;;;7.91;100.00
62705;BME280;48767;50.754;8.772;2022-10-03T07:24:06;100342.78;;;7.75;100.00
62705;BME280;48767;50.754;8.772;2022-10-03T07:27:04;100345.47;;;8.10;100.00
62705;BME280;48767;50.754;8.772;2022-10-03T07:35:49;100350.81;;;8.33;100.00
62705;BME280;48767;50.754;8.772;2022-10-03T07:38:48;100349.41;;;8.73;100.00
62705;BME280;48767;50.754;8.772;2022-10-03T07:41:47;100351.34;;;9.04;100.00
62705;BME280;48767;50.754;8.772;2022-10-03T07:45:09;100347.84;;;9.57;100.00
62705;BME280;48767;50.754;8.772;2022-10-03T07:48:13;100348.19;;;9.95;100.00
62705;BME280;48767;50.754;8.772;2022-10-03T07:51:04;100340.25;;;10.05;100.00
62705;BME280;48767;50.754;8.772;2022-10-03T07:56:42;100361.84;;;10.55;100.00
62705;BME280;48767;50.754;8.772;2022-10-03T07:59:35;100362.44;;;10.59;100.00
62705;BME280;48767;50.754;8.772;2022-10-03T08:05:21;100367.09;;;10.16;100.00
62705;BME280;48767;50.754;8.772;2022-10-03T08:08:07;100366.06;;;10.48;100.00
62705;BME280;48767;50.754;8.772;2022-10-03T08:11:04;100365.44;;;10.86;100.00
62705;BME280;48767;50.754;8.772;2022-10-03T08:13:48;100372.94;;;11.12;100.00
62705;BME280;48767;50.754;8.772;2022-10-03T08:16:25;100371.75;;;11.35;100.00
62705;BME280;48767;50.754;8.772;2022-10-03T08:19:26;100371.44;;;11.78;100.00
62705;BME280;48767;50.754;8.772;2022-10-03T08:22:04;100370.63;;;11.96;100.00
62705;BME280;48767;50.754;8.772;2022-10-03T08:24:52;100371.06;;;12.20;100.00
62705;BME280;48767;50.754;8.772;2022-10-03T08:27:34;100364.94;;;12.28;100.00
62705;BME280;48767;50.754;8.772;2022-10-03T08:30:21;100372.22;;;12.08;100.00
62705;BME280;48767;50.754;8.772;2022-10-03T08:33:10;100377.31;;;11.92;100.00
62705;BME280;48767;50.754;8.772;2022-10-03T08:36:16;100370.91;;;12.12;100.00
62705;BME280;48767;50.754;8.772;2022-10-03T08:38:54;100377.00;;;12.52;100.00
62705;BME280;48767;50.754;8.772;2022-10-03T08:45:18;100371.09;;;13.31;99.16
62705;BME280;48767;50.754;8.772;2022-10-03T08:48:22;100366.03;;;13.73;96.46
62705;BME280;48767;50.754;8.772;2022-10-03T08:54:13;100354.13;;;14.01;91.57
62705;BME280;48767;50.754;8.772;2022-10-03T08:57:06;100360.41;;;14.01;90.13
62705;BME280;48767;50.754;8.772;2022-10-03T09:00:04;100360.03;;;13.96;89.65
62705;BME280;48767;50.754;8.772;2022-10-03T09:05:50;100359.91;;;13.53;89.53
62705;BME280;48767;50.754;8.772;2022-10-03T09:08:40;100367.47;;;13.50;89.72
62705;BME280;48767;50.754;8.772;2022-10-03T09:11:34;100363.16;;;13.57;90.21
62705;BME280;48767;50.754;8.772;2022-10-03T09:16:56;100363.00;;;14.20;89.78
62705;BME280;48767;50.754;8.772;2022-10-03T09:25:57;100363.63;;;15.00;86.52
62705;BME280;48767;50.754;8.772;2022-10-03T09:32:00;100359.00;;;15.26;81.73
62705;BME280;48767;50.754;8.772;2022-10-03T09:34:52;100354.25;;;15.20;81.39
62705;BME280;48767;50.754;8.772;2022-10-03T09:37:48;100351.72;;;14.93;81.89
62705;BME280;48767;50.754;8.772;2022-10-03T09:40:53;100355.41;;;15.18;81.74
62705;BME280;48767;50.754;8.772;2022-10-03T09:44:05;100358.94;;;15.10;82.30
62705;BME280;48767;50.754;8.772;2022-10-03T09:47:04;100355.31;;;15.02;81.78
62705;BME280;48767;50.754;8.772;2022-10-03T09:53:22;100364.00;;;14.80;81.37
62705;BME280;48767;50.754;8.772;2022-10-03T09:56:11;100358.50;;;14.46;82.86
62705;BME280;48767;50.754;8.772;2022-10-03T09:59:05;100359.81;;;14.42;81.60
62705;BME280;48767;50.754;8.772;2022-10-03T10:01:41;100351.94;;;14.57;82.87
62705;BME280;48767;50.754;8.772;2022-10-03T10:04:40;100360.22;;;14.73;82.41
62705;BME280;48767;50.754;8.772;2022-10-03T10:10:46;100362.94;;;14.55;87.60
62705;BME280;48767;50.754;8.772;2022-10-03T10:13:34;100354.38;;;15.19;83.35
62705;BME280;48767;50.754;8.772;2022-10-03T10:16:29;100360.03;;;15.59;81.06
62705;BME280;48767;50.754;8.772;2022-10-03T10:22:28;100359.53;;;15.30;81.24
62705;BME280;48767;50.754;8.772;2022-10-03T10:25:34;100355.69;;;14.81;77.69
62705;BME280;48767;50.754;8.772;2022-10-03T10:28:21;100339.31;;;14.91;76.54
62705;BME280;48767;50.754;8.772;2022-10-03T10:34:54;100337.13;;;15.61;74.82
62705;BME280;48767;50.754;8.772;2022-10-03T10:37:54;100341.69;;;15.19;75.37
62705;BME280;48767;50.754;8.772;2022-10-03T10:44:16;100338.91;;;15.11;72.90
62705;BME280;48767;50.754;8.772;2022-10-03T10:47:09;100349.97;;;15.18;75.64
62705;BME280;48767;50.754;8.772;2022-10-03T10:50:05;100345.22;;;15.12;76.34
62705;BME280;48767;50.754;8.772;2022-10-03T10:56:26;100348.75;;;15.12;74.31
62705;BME280;48767;50.754;8.772;2022-10-03T11:02:36;100339.78;;;14.86;76.90
62705;BME280;48767;50.754;8.772;2022-10-03T11:05:38;100341.16;;;14.90;77.48
62705;BME280;48767;50.754;8.772;2022-10-03T11:08:31;100331.91;;;15.01;76.46
62705;BME280;48767;50.754;8.772;2022-10-03T11:11:25;100334.13;;;14.97;73.77
62705;BME280;48767;50.754;8.772;2022-10-03T11:14:26;100336.31;;;15.02;74.19
62705;BME280;48767;50.754;8.772;2022-10-03T11:17:21;100327.09;;;15.20;74.04
62705;BME280;48767;50.754;8.772;2022-10-03T11:20:22;100320.66;;;15.55;73.23
62705;BME280;48767;50.754;8.772;2022-10-03T11:32:14;100283.16;;;16.94;65.35
62705;BME280;48767;50.754;8.772;2022-10-03T11:35:20;100292.94;;;16.41;65.39
62705;BME280;48767;50.754;8.772;2022-10-03T11:37:56;100287.28;;;16.66;67.17
62705;BME280;48767;50.754;8.772;2022-10-03T11:40:34;100284.94;;;16.55;64.63
62705;BME280;48767;50.754;8.772;2022-10-03T11:46:23;100283.97;;;16.95;62.12
62705;BME280;48767;50.754;8.772;2022-10-03T11:49:00;100292.53;;;17.38;61.46
62705;BME280;48767;50.754;8.772;2022-10-03T11:51:38;100282.56;;;17.53;59.30
62705;BME280;48767;50.754;8.772;2022-10-03T11:54:15;100283.25;;;18.08;59.03
62705;BME280;48767;50.754;8.772;2022-10-03T11:56:48;100286.97;;;17.62;58.04
62705;BME280;48767;50.754;8.772;2022-10-03T11:59:50;100293.53;;;17.98;60.72
62705;BME280;48767;50.754;8.772;2022-10-03T12:02:38;100291.97;;;16.96;62.18
62705;BME280;48767;50.754;8.772;2022-10-03T12:05:15;100287.97;;;16.60;63.40
62705;BME280;48767;50.754;8.772;2022-10-03T12:07:51;100286.75;;;16.79;63.53
62705;BME280;48767;50.754;8.772;2022-10-03T12:10:50;100281.69;;;16.60;62.84
62705;BME280;48767;50.754;8.772;2022-10-03T12:13:26;100283.94;;;16.48;63.75
62705;BME280;48767;50.754;8.772;2022-10-03T12:15:55;100287.34;;;16.42;65.80
62705;BME280;48767;50.754;8.772;2022-10-03T12:18:28;100282.69;;;16.67;65.29
62705;BME280;48767;50.754;8.772;2022-10-03T12:21:08;100273.00;;;16.64;63.59
62705;BME280;48767;50.754;8.772;2022-10-03T12:24:01;100270.50;;;16.47;63.85
62705;BME280;48767;50.754;8.772;2022-10-03T12:26:39;100282.38;;;16.54;64.46
62705;BME280;48767;50.754;8.772;2022-10-03T12:29:10;100267.03;;;16.77;61.94
62705;BME280;48767;50.754;8.772;2022-10-03T12:31:41;100265.84;;;16.79;61.10
62705;BME280;48767;50.754;8.772;2022-10-03T12:34:26;100273.41;;;17.00;62.46
62705;BME280;48767;50.754;8.772;2022-10-03T12:37:10;100264.94;;;17.33;60.63
62705;BME280;48767;50.754;8.772;2022-10-03T12:39:54;100254.03;;;17.33;60.49
62705;BME280;48767;50.754;8.772;2022-10-03T12:42:28;100267.31;;;16.90;61.06
62705;BME280;48767;50.754;8.772;2022-10-03T12:44:58;100265.88;;;16.63;61.43
62705;BME280;48767;50.754;8.772;2022-10-03T12:47:39;100259.78;;;16.53;61.24
62705;BME280;48767;50.754;8.772;2022-10-03T12:50:21;100264.06;;;16.40;62.40
62705;BME280;48767;50.754;8.772;2022-10-03T12:52:57;100265.69;;;16.73;61.70
62705;BME280;48767;50.754;8.772;2022-10-03T12:55:31;100266.13;;;17.00;62.79
62705;BME280;48767;50.754;8.772;2022-10-03T12:58:04;100265.00;;;17.17;61.22
62705;BME280;48767;50.754;8.772;2022-10-03T13:00:41;100251.50;;;17.32;60.05
62705;BME280;48767;50.754;8.772;2022-10-03T13:03:19;100259.38;;;16.72;59.97
62705;BME280;48767;50.754;8.772;2022-10-03T13:06:17;100268.94;;;16.68;61.96
62705;BME280;48767;50.754;8.772;2022-10-03T13:08:55;100257.06;;;16.45;62.03
62705;BME280;48767;50.754;8.772;2022-10-03T13:11:34;100265.34;;;16.60;63.34
62705;BME280;48767;50.754;8.772;2022-10-03T13:14:20;100272.66;;;16.67;63.72
62705;BME280;48767;50.754;8.772;2022-10-03T13:16:58;100250.88;;;16.67;61.92
62705;BME280;48767;50.754;8.772;2022-10-03T13:19:32;100257.00;;;16.77;61.66
62705;BME280;48767;50.754;8.772;2022-10-03T13:22:17;100258.28;;;16.97;61.66
62705;BME280;48767;50.754;8.772;2022-10-03T13:24:51;100259.31;;;16.96;60.51
62705;BME280;48767;50.754;8.772;2022-10-03T13:27:36;100256.09;;;16.93;60.43
62705;BME280;48767;50.754;8.772;2022-10-03T13:30:14;100254.91;;;16.95;59.53
62705;BME280;48767;50.754;8.772;2022-10-03T13:32:45;100248.56;;;17.72;58.84
62705;BME280;48767;50.754;8.772;2022-10-03T13:35:19;100238.22;;;17.67;58.22
62705;BME280;48767;50.754;8.772;2022-10-03T13:38:13;100237.38;;;18.49;57.78
62705;BME280;48767;50.754;8.772;2022-10-03T13:40:47;100240.69;;;18.73;55.40
62705;BME280;48767;50.754;8.772;2022-10-03T13:43:19;100248.88;;;18.22;54.90
62705;BME280;48767;50.754;8.772;2022-10-03T13:45:50;100244.97;;;18.16;55.28
62705;BME280;48767;50.754;8.772;2022-10-03T13:48:22;100236.09;;;18.59;53.73
62705;BME280;48767;50.754;8.772;2022-10-03T13:50:56;100237.50;;;18.55;53.56
62705;BME280;48767;50.754;8.772;2022-10-03T13:53:51;100230.84;;;19.01;53.99
62705;BME280;48767;50.754;8.772;2022-10-03T13:56:31;100228.84;;;18.81;52.81
62705;BME280;48767;50.754;8.772;2022-10-03T13:59:08;100229.03;;;18.79;52.70
62705;BME280;48767;50.754;8.772;2022-10-03T14:01:48;100233.94;;;18.98;52.48
62705;BME280;48767;50.754;8.772;2022-10-03T14:04:55;100240.28;;;18.47;54.11
62705;BME280;48767;50.754;8.772;2022-10-03T14:07:32;100250.75;;;17.99;57.55
62705;BME280;48767;50.754;8.772;2022-10-03T14:10:29;100238.03;;;18.14;56.28
62705;BME280;48767;50.754;8.772;2022-10-03T14:13:12;100236.03;;;18.08;55.18
62705;BME280;48767;50.754;8.772;2022-10-03T14:15:49;100237.78;;;18.23;54.87
62705;BME280;48767;50.754;8.772;2022-10-03T14:18:31;100234.63;;;18.34;55.55
62705;BME280;48767;50.754;8.772;2022-10-03T14:21:43;100234.00;;;17.87;55.20
62705;BME280;48767;50.754;8.772;2022-10-03T14:24:22;100233.44;;;17.69;56.69
62705;BME280;48767;50.754;8.772;2022-10-03T14:26:57;100232.81;;;17.59;56.51
62705;BME280;48767;50.754;8.772;2022-10-03T14:29:32;100227.75;;;17.56;57.07
62705;BME280;48767;50.754;8.772;2022-10-03T14:32:06;100227.03;;;17.85;56.34
62705;BME280;48767;50.754;8.772;2022-10-03T14:34:45;100228.13;;;17.98;55.46
62705;BME280;48767;50.754;8.772;2022-10-03T14:37:24;100226.63;;;18.10;58.18
62705;BME280;48767;50.754;8.772;2022-10-03T14:40:06;100232.22;;;17.94;57.30
62705;BME280;48767;50.754;8.772;2022-10-03T14:45:26;100230.88;;;17.37;59.51
62705;BME280;48767;50.754;8.772;2022-10-03T14:47:59;100218.78;;;17.70;58.03
62705;BME280;48767;50.754;8.772;2022-10-03T14:50:30;100222.72;;;18.27;56.49
62705;BME280;48767;50.754;8.772;2022-10-03T14:52:59;100224.03;;;18.39;55.67
62705;BME280;48767;50.754;8.772;2022-10-03T14:55:31;100219.63;;;18.67;55.59
62705;BME280;48767;50.754;8.772;2022-10-03T14:58:01;100225.38;;;18.21;54.35
62705;BME280;48767;50.754;8.772;2022-10-03T15:00:37;100224.00;;;18.02;56.97
62705;BME280;48767;50.754;8.772;2022-10-03T15:03:27;100221.03;;;18.26;56.77
62705;BME280;48767;50.754;8.772;2022-10-03T15:06:00;100220.97;;;17.97;57.50
62705;BME280;48767;50.754;8.772;2022-10-03T15:08:32;100207.41;;;17.89;58.66
62705;BME280;48767;50.754;8.772;2022-10-03T15:11:03;100212.00;;;17.66;58.10
62705;BME280;48767;50.754;8.772;2022-10-03T15:13:33;100210.72;;;17.54;58.39
62705;BME280;48767;50.754;8.772;2022-10-03T15:16:04;100212.69;;;17.38;59.78
62705;BME280;48767;50.754;8.772;2022-10-03T15:18:34;100203.88;;;17.28;60.34
62705;BME280;48767;50.754;8.772;2022-10-03T15:21:04;100205.41;;;17.30;61.75
62705;BME280;48767;50.754;8.772;2022-10-03T15:23:38;100204.69;;;17.36;62.31
62705;BME280;48767;50.754;8.772;2022-10-03T15:26:09;100203.06;;;17.19;63.99
62705;BME280;48767;50.754;8.772;2022-10-03T15:28:43;100203.66;;;17.45;65.56
62705;BME280;48767;50.754;8.772;2022-10-03T15:31:21;100217.59;;;16.57;71.02
62705;BME280;48767;50.754;8.772;2022-10-03T15:33:53;100213.56;;;16.29;71.31
62705;BME280;48767;50.754;8.772;2022-10-03T15:36:22;100212.22;;;16.09;74.12
62705;BME280;48767;50.754;8.772;2022-10-03T15:38:52;100220.66;;;15.34;80.34
62705;BME280;48767;50.754;8.772;2022-10-03T15:41:21;100223.91;;;15.54;78.52
62705;BME280;48767;50.754;8.772;2022-10-03T15:43:54;100231.94;;;14.80;81.65
62705;BME280;48767;50.754;8.772;2022-10-03T15:46:31;100233.06;;;15.03;82.86
62705;BME280;48767;50.754;8.772;2022-10-03T15:49:02;100223.25;;;15.10;79.83
62705;BME280;48767;50.754;8.772;2022-10-03T15:51:32;100232.59;;;14.74;81.82
62705;BME280;48767;50.754;8.772;2022-10-03T15:54:05;100228.31;;;14.38;83.41
62705;BME280;48767;50.754;8.772;2022-10-03T15:56:37;100222.63;;;14.49;83.96
62705;BME280;48767;50.754;8.772;2022-10-03T15:59:06;100221.38;;;14.69;82.32
62705;BME280;48767;50.754;8.772;2022-10-03T16:01:37;100226.63;;;14.37;85.82
62705;BME280;48767;50.754;8.772;2022-10-03T16:04:16;100215.19;;;14.51;84.48
62705;BME280;48767;50.754;8.772;2022-10-03T16:06:50;100214.38;;;14.25;85.14
62705;BME280;48767;50.754;8.772;2022-10-03T16:09:26;100220.09;;;14.22;86.45
62705;BME280;48767;50.754;8.772;2022-10-03T16:12:06;100221.06;;;13.78;91.45
62705;BME280;48767;50.754;8.772;2022-10-03T16:14:40;100211.28;;;14.20;88.29
62705;BME280;48767;50.754;8.772;2022-10-03T16:17:15;100212.97;;;14.21;86.24
62705;BME280;48767;50.754;8.772;2022-10-03T16:19:50;100208.28;;;14.31;84.46
62705;BME280;48767;50.754;8.772;2022-10-03T16:22:21;100218.31;;;13.96;86.54
62705;BME280;48767;50.754;8.772;2022-10-03T16:25:01;100213.38;;;13.91;87.00
62705;BME280;48767;50.754;8.772;2022-10-03T16:27:35;100222.28;;;13.31;92.46